createdAt,value
2022-07-26T00:00:16.383Z,8
2022-07-26T00:05:16.359Z,10
2022-07-26T00:10:16.432Z,10
2022-07-26T00:15:16.662Z,13
2022-07-26T00:20:16.771Z,14
2022-07-26T00:25:16.462Z,9
2022-07-26T00:30:16.481Z,7
2022-07-26T00:35:16.482Z,9
2022-07-26T00:40:16.546Z,11
2022-07-26T00:45:16.478Z,11
2022-07-26T00:50:16.602Z,12
2022-07-26T00:55:16.759Z,12
2022-07-26T01:00:17.524Z,11
2022-07-26T01:05:16.569Z,8
2022-07-26T01:10:16.646Z,8
2022-07-26T01:15:16.555Z,6
2022-07-26T01:20:16.676Z,6
2022-07-26T01:25:16.613Z,6
2022-07-26T01:30:16.729Z,6
2022-07-26T01:35:16.678Z,7
2022-07-26T01:40:16.748Z,7
2022-07-26T01:45:16.548Z,7
2022-07-26T01:50:16.778Z,6
2022-07-26T01:55:16.788Z,5
2022-07-26T02:00:16.767Z,7
2022-07-26T02:05:17.648Z,8
2022-07-26T02:10:16.737Z,8
2022-07-26T02:15:16.690Z,7
2022-07-26T02:20:16.813Z,9
2022-07-26T02:25:16.645Z,9
2022-07-26T02:30:16.628Z,9
2022-07-26T02:35:17.555Z,9
2022-07-26T02:40:19.468Z,8
2022-07-26T02:45:16.698Z,8
2022-07-26T02:50:16.782Z,9
2022-07-26T02:55:17.188Z,7
2022-07-26T03:00:16.817Z,9
2022-07-26T03:05:16.808Z,10
2022-07-26T03:10:16.968Z,10
2022-07-26T03:15:17.055Z,9
2022-07-26T03:20:17.005Z,7
2022-07-26T03:25:16.879Z,7
2022-07-26T03:30:16.851Z,7
2022-07-26T03:35:16.843Z,6
2022-07-26T03:40:16.919Z,7
2022-07-26T03:45:16.949Z,8
2022-07-26T03:50:17.522Z,8
2022-07-26T03:55:16.916Z,8
2022-07-26T04:00:18.154Z,7
2022-07-26T04:05:18.002Z,7
2022-07-26T04:10:17.954Z,9
2022-07-26T04:15:17.951Z,10
2022-07-26T04:20:18.307Z,11
2022-07-26T04:25:17.838Z,11
2022-07-26T04:30:17.993Z,9
2022-07-26T04:35:17.966Z,8
2022-07-26T04:40:18.040Z,8
2022-07-26T04:45:18.168Z,8
2022-07-26T04:50:18.294Z,10
2022-07-26T04:55:18.085Z,9
2022-07-26T05:00:22.576Z,8
2022-07-26T05:05:18.055Z,8
2022-07-26T05:10:18.044Z,6
2022-07-26T05:50:18.318Z,6
2022-07-26T05:55:18.125Z,7
2022-07-26T06:00:18.513Z,7
2022-07-26T06:05:18.168Z,6
2022-07-26T06:10:18.214Z,5
2022-07-26T06:15:18.325Z,5
2022-07-26T06:20:18.311Z,4
2022-07-26T06:25:18.161Z,5
2022-07-26T06:30:18.268Z,5
2022-07-26T06:35:16.299Z,5
2022-07-26T06:40:16.199Z,5
2022-07-26T06:45:16.250Z,4
2022-07-26T06:50:16.285Z,4
2022-07-26T06:55:16.207Z,5
2022-07-26T07:00:16.675Z,6
2022-07-26T07:05:16.419Z,5
2022-07-26T07:10:16.649Z,5
2022-07-26T07:15:16.265Z,4
2022-07-26T07:20:16.420Z,6
2022-07-26T07:25:16.300Z,5
2022-07-26T07:30:16.336Z,6
2022-07-26T07:35:16.383Z,8
2022-07-26T07:40:18.101Z,9
2022-07-26T07:45:16.566Z,10
2022-07-26T07:50:16.412Z,11
2022-07-26T07:55:40.234Z,12
2022-07-26T08:00:16.486Z,11
2022-07-26T08:05:16.466Z,11
2022-07-26T08:10:16.384Z,11
2022-07-26T08:15:16.566Z,9
2022-07-26T08:25:58.028Z,7
2022-07-26T08:30:16.814Z,6
2022-07-26T08:35:18.264Z,6
2022-07-26T08:40:16.373Z,6
2022-07-26T08:45:16.452Z,7
2022-07-26T08:50:16.945Z,6
2022-07-26T08:55:16.443Z,5
2022-07-26T09:00:16.476Z,4
2022-07-26T09:05:16.476Z,5
2022-07-26T09:10:16.703Z,5
2022-07-26T09:15:16.599Z,5
2022-07-26T09:20:16.795Z,5
2022-07-26T09:25:16.709Z,6
2022-07-26T09:30:16.678Z,6
2022-07-26T09:35:45.997Z,5
2022-07-26T09:40:16.589Z,6
2022-07-26T09:45:16.579Z,6
2022-07-26T09:50:17.075Z,6
2022-07-26T09:55:16.591Z,6
2022-07-26T10:00:17.029Z,7
2022-07-26T10:05:16.697Z,6
2022-07-26T10:10:16.770Z,7
2022-07-26T10:15:16.591Z,5
2022-07-26T10:20:17.267Z,5
2022-07-26T10:25:16.674Z,4
2022-07-26T10:30:16.786Z,3
2022-07-26T10:35:16.874Z,3
2022-07-26T10:40:16.805Z,4
2022-07-26T10:45:16.689Z,6
2022-07-26T10:50:17.168Z,6
2022-07-26T10:55:16.701Z,7
2022-07-26T11:00:16.793Z,7
2022-07-26T11:05:17.047Z,6
2022-07-26T11:10:16.998Z,6
2022-07-26T11:15:16.629Z,4
2022-07-26T11:20:16.910Z,3
2022-07-26T11:25:16.756Z,2
2022-07-26T11:30:16.832Z,5
2022-07-26T11:35:16.727Z,4
2022-07-26T11:40:16.815Z,3
2022-07-26T11:45:16.963Z,3
2022-07-26T11:50:22.582Z,5
2022-07-26T11:55:16.738Z,3
2022-07-26T12:00:17.036Z,3
2022-07-26T12:05:18.433Z,4
2022-07-26T12:10:16.907Z,5
2022-07-26T12:15:16.900Z,5
2022-07-26T12:20:17.548Z,5
2022-07-26T12:25:17.009Z,6
2022-07-26T12:30:17.001Z,6
2022-07-26T12:35:16.909Z,7
2022-07-26T12:40:17.087Z,8
2022-07-26T12:45:16.901Z,6
2022-07-26T12:50:17.330Z,7
2022-07-26T12:55:16.908Z,6
2022-07-26T13:00:16.959Z,8
2022-07-26T13:05:17.250Z,8
2022-07-26T13:10:34.419Z,6
2022-07-26T13:15:17.143Z,6
2022-07-26T13:20:17.314Z,5
2022-07-26T13:25:17.178Z,4
2022-07-26T13:30:17.089Z,3
2022-07-26T13:35:17.109Z,4
2022-07-26T13:40:17.073Z,2
2022-07-26T13:45:17.067Z,1
2022-07-26T13:50:17.205Z,2
2022-07-26T13:55:17.486Z,2
2022-07-26T14:00:17.207Z,1
2022-07-26T14:05:17.244Z,2
2022-07-26T14:10:17.141Z,3
2022-07-26T14:15:22.120Z,1
2022-07-26T14:20:17.476Z,3
2022-07-26T14:25:17.131Z,4
2022-07-26T14:30:17.749Z,3
2022-07-26T14:35:17.472Z,3
2022-07-26T14:40:17.475Z,3
2022-07-26T14:45:17.164Z,3
2022-07-26T14:50:17.463Z,3
2022-07-26T14:55:20.521Z,3
2022-07-26T15:00:17.310Z,3
2022-07-26T15:05:17.617Z,3
2022-07-26T15:10:17.266Z,4
2022-07-26T15:15:17.248Z,3
2022-07-26T15:20:17.458Z,3
2022-07-26T15:25:17.579Z,4
2022-07-26T15:30:17.315Z,5
2022-07-26T15:35:17.277Z,4
2022-07-26T15:40:17.550Z,4
2022-07-26T15:45:17.261Z,4
2022-07-26T15:50:17.409Z,4
2022-07-26T15:55:17.292Z,5
2022-07-26T16:00:17.320Z,6
2022-07-26T16:05:17.286Z,5
2022-07-26T16:10:17.344Z,6
2022-07-26T16:15:17.631Z,4
2022-07-26T16:20:17.506Z,3
2022-07-26T16:25:17.500Z,5
2022-07-26T16:30:17.477Z,6
2022-07-26T16:35:17.485Z,4
2022-07-26T16:40:17.478Z,4
2022-07-26T16:45:17.553Z,5
2022-07-26T16:50:27.215Z,5
2022-07-26T16:55:17.434Z,4
2022-07-26T17:00:17.576Z,5
2022-07-26T17:05:17.593Z,6
2022-07-26T17:10:17.667Z,6
2022-07-26T17:15:17.448Z,6
2022-07-26T17:20:17.642Z,6
2022-07-26T17:26:22.353Z,7
2022-07-26T17:30:17.466Z,6
2022-07-26T17:35:17.565Z,5
2022-07-26T17:40:17.675Z,5
2022-07-26T17:45:17.475Z,4
2022-07-26T17:50:53.258Z,4
2022-07-26T17:55:17.617Z,5
2022-07-26T18:00:17.934Z,5
2022-07-26T18:05:17.649Z,4
2022-07-26T18:10:17.951Z,4
2022-07-26T18:15:17.606Z,5
2022-07-26T18:20:17.633Z,4
2022-07-26T18:25:17.640Z,5
2022-07-26T18:30:17.678Z,6
2022-07-26T18:35:17.826Z,7
2022-07-26T18:40:17.772Z,6
2022-07-26T18:45:17.661Z,6
2022-07-26T18:50:17.809Z,7
2022-07-26T18:55:17.759Z,9
2022-07-26T19:00:17.744Z,11
2022-07-26T19:05:17.737Z,10
2022-07-26T19:10:17.901Z,9
2022-07-26T19:15:17.723Z,10
2022-07-26T19:20:17.862Z,8
2022-07-26T19:25:17.789Z,8
2022-07-26T19:30:17.941Z,7
2022-07-26T19:35:17.814Z,7
2022-07-26T19:40:17.834Z,8
2022-07-26T19:45:17.902Z,9
2022-07-26T19:50:17.954Z,8
2022-07-26T19:55:17.948Z,8
2022-07-26T20:00:17.847Z,8
2022-07-26T20:05:18.015Z,7
2022-07-26T20:10:17.883Z,6
2022-07-26T20:15:17.836Z,7
2022-07-26T20:20:18.148Z,5
2022-07-26T20:25:21.436Z,5
2022-07-26T20:30:17.854Z,5
2022-07-26T20:35:17.919Z,5
2022-07-26T20:40:18.154Z,5
2022-07-26T20:45:17.981Z,5
2022-07-26T20:50:18.097Z,3
2022-07-26T20:55:18.090Z,3
2022-07-26T21:00:18.043Z,3
2022-07-26T21:05:17.951Z,3
2022-07-26T21:10:18.050Z,4
2022-07-26T21:15:17.932Z,4
2022-07-26T21:20:18.089Z,3
2022-07-26T21:25:17.862Z,5
2022-07-26T21:30:18.258Z,6
2022-07-26T21:35:18.041Z,4
2022-07-26T21:40:18.171Z,3
2022-07-26T21:45:18.377Z,2
2022-07-26T21:50:18.093Z,4
2022-07-26T21:55:18.356Z,4
2022-07-26T22:00:18.091Z,4
2022-07-26T22:05:18.506Z,4
2022-07-26T22:10:18.283Z,5
2022-07-26T22:15:18.140Z,6
2022-07-26T22:20:18.151Z,4
2022-07-26T22:25:18.149Z,3
2022-07-26T22:30:18.376Z,4
2022-07-26T22:35:18.121Z,2
2022-07-26T22:40:18.496Z,2
2022-07-26T22:45:18.129Z,4
2022-07-26T22:50:18.272Z,3
2022-07-26T22:55:18.141Z,3
2022-07-26T23:00:18.238Z,3
2022-07-26T23:05:18.285Z,3
2022-07-26T23:10:19.021Z,3
2022-07-26T23:15:18.283Z,3
2022-07-26T23:20:16.363Z,3
2022-07-26T23:25:16.363Z,3
2022-07-26T23:30:16.332Z,2
2022-07-26T23:35:16.237Z,2
2022-07-26T23:40:16.344Z,3
2022-07-26T23:45:16.501Z,4
2022-07-26T23:50:16.396Z,4
2022-07-26T23:55:16.192Z,4
